Time;durP1;ratioP1;P1;durP2;ratioP2;P2;SDS_P1;SDS_P2;PMS_P1;PMS_P2;Temp;Humidity;BMP_temperature;BMP_pressure;BME280_temperature;BME280_humidity;BME280_pressure;Samples;Min_cycle;Max_cycle;Signal;HPM_P1;HPM_P2
2021/05/25 00:01:20;;;;;;;3.97;0.40;;;;;16.00;100608.00;;;;5070256;28;20207;-77
2021/05/25 00:03:48;;;;;;;0.50;0.30;;;;;16.00;100608.00;;;;5071509;28;20203;-77
2021/05/25 00:06:14;;;;;;;0.52;0.22;;;;;15.90;100603.00;;;;5068953;28;20211;-77
2021/05/25 00:08:41;;;;;;;0.52;0.20;;;;;15.90;100609.00;;;;5070736;28;20226;-77
2021/05/25 00:11:08;;;;;;;0.35;0.15;;;;;15.90;100604.00;;;;5080604;28;20199;-77
2021/05/25 00:13:35;;;;;;;0.22;0.10;;;;;15.80;100601.00;;;;5070594;28;20213;-77
2021/05/25 00:16:02;;;;;;;0.10;0.10;;;;;15.80;100600.00;;;;5071013;28;20218;-77
2021/05/25 00:18:29;;;;;;;0.30;0.20;;;;;15.70;100608.00;;;;5082793;28;20699;-77
2021/05/25 00:20:57;;;;;;;0.80;0.38;;;;;15.70;100602.00;;;;5078243;28;20206;-77
2021/05/25 00:23:24;;;;;;;0.47;0.20;;;;;15.60;100615.00;;;;5071387;28;20818;-77
2021/05/25 00:25:51;;;;;;;0.38;0.28;;;;;15.60;100607.00;;;;5070352;28;20195;-77
2021/05/25 00:28:20;;;;;;;0.30;0.20;;;;;15.50;100611.00;;;;5070124;28;20199;-77
2021/05/25 00:30:47;;;;;;;0.25;0.20;;;;;15.50;100607.00;;;;5083243;28;20248;-77
2021/05/25 00:33:13;;;;;;;1.15;0.38;;;;;15.40;100611.00;;;;5085654;28;20202;-77
2021/05/25 00:35:41;;;;;;;0.63;0.30;;;;;15.40;100615.00;;;;5069931;28;20219;-77
2021/05/25 00:38:10;;;;;;;0.40;0.10;;;;;15.40;100607.00;;;;5070318;28;20198;-77
2021/05/25 00:40:37;;;;;;;0.20;0.10;;;;;15.30;100613.00;;;;5069941;28;20195;-77
2021/05/25 00:43:04;;;;;;;0.40;0.25;;;;;15.30;100615.00;;;;5070181;28;20211;-77
2021/05/25 00:45:30;;;;;;;0.30;0.10;;;;;15.20;100612.00;;;;5069009;28;20510;-77
2021/05/25 00:47:57;;;;;;;1.08;0.20;;;;;15.20;100611.00;;;;5069845;28;20210;-77
2021/05/25 00:50:28;;;;;;;0.20;0.10;;;;;15.20;100610.00;;;;5076728;28;20202;-77
2021/05/25 00:52:56;;;;;;;0.30;0.20;;;;;15.20;100621.00;;;;5074132;28;20193;-77
2021/05/25 00:55:26;;;;;;;0.50;0.30;;;;;15.10;100622.00;;;;5068939;28;20223;-77
2021/05/25 00:57:54;;;;;;;0.30;0.30;;;;;15.10;100619.00;;;;5069761;28;20207;-77
2021/05/25 01:00:25;;;;;;;0.30;0.10;;;;;15.10;100631.00;;;;5077274;28;20203;-77
2021/05/25 01:02:52;;;;;;;0.60;0.30;;;;;15.10;100625.00;;;;5074589;28;20191;-77
2021/05/25 01:05:19;;;;;;;0.43;0.15;;;;;15.00;100623.00;;;;5089410;28;20190;-77
2021/05/25 01:07:46;;;;;;;0.20;0.20;;;;;15.00;100632.00;;;;5085041;28;20203;-77
2021/05/25 01:10:16;;;;;;;0.50;0.25;;;;;15.00;100627.00;;;;5068347;28;20254;-77
2021/05/25 01:12:53;;;;;;;0.40;0.20;;;;;14.90;100617.00;;;;5070081;28;20213;-78
2021/05/25 01:15:21;;;;;;;0.90;0.28;;;;;14.90;100626.00;;;;5069177;28;20218;-77
2021/05/25 01:17:51;;;;;;;0.77;0.30;;;;;14.90;100634.00;;;;5068713;28;20665;-77
2021/05/25 01:20:18;;;;;;;0.30;0.20;;;;;14.90;100634.00;;;;5068751;28;20608;-77
2021/05/25 01:22:46;;;;;;;0.40;0.30;;;;;14.80;100630.00;;;;5072675;28;20693;-77
2021/05/25 01:25:15;;;;;;;0.88;0.38;;;;;14.80;100637.00;;;;5068766;28;20620;-77
2021/05/25 01:27:42;;;;;;;0.25;0.17;;;;;14.80;100636.00;;;;5069098;28;20199;-77
2021/05/25 01:30:10;;;;;;;1.40;0.40;;;;;14.80;100638.00;;;;5073282;28;20217;-77
2021/05/25 01:32:37;;;;;;;0.95;0.30;;;;;14.80;100640.00;;;;5086889;28;20598;-77
2021/05/25 01:35:06;;;;;;;0.93;0.30;;;;;14.80;100637.00;;;;5069494;28;20203;-77
2021/05/25 01:37:33;;;;;;;0.30;0.30;;;;;14.80;100637.00;;;;5074047;28;20209;-77
2021/05/25 01:40:00;;;;;;;0.52;0.32;;;;;14.70;100645.00;;;;5087956;28;20199;-77
2021/05/25 01:42:32;;;;;;;2.83;0.65;;;;;14.70;100638.00;;;;5088313;28;20652;-77
2021/05/25 01:44:59;;;;;;;1.00;0.70;;;;;14.70;100641.00;;;;5072336;28;20202;-77
2021/05/25 01:47:26;;;;;;;1.30;0.68;;;;;14.70;100641.00;;;;5088998;28;20260;-77
2021/05/25 01:49:53;;;;;;;1.73;0.70;;;;;14.70;100639.00;;;;5075273;28;20207;-77
2021/05/25 01:52:20;;;;;;;1.50;0.88;;;;;14.60;100639.00;;;;5078514;28;20230;-77
2021/05/25 01:54:47;;;;;;;1.38;1.20;;;;;14.60;100652.00;;;;5069178;28;20230;-77
2021/05/25 01:57:15;;;;;;;1.95;1.13;;;;;14.60;100641.00;;;;5082349;28;20237;-77
2021/05/25 01:59:41;;;;;;;3.28;1.60;;;;;14.60;100651.00;;;;5079609;28;20202;-77
2021/05/25 02:02:08;;;;;;;5.30;1.40;;;;;14.60;100649.00;;;;5069448;28;20191;-77
2021/05/25 02:04:35;;;;;;;2.08;1.45;;;;;14.50;100650.00;;;;5067684;28;20215;-77
2021/05/25 02:07:02;;;;;;;2.05;1.55;;;;;14.50;100652.00;;;;5068057;28;20202;-77
2021/05/25 02:09:35;;;;;;;2.35;1.50;;;;;14.50;100657.00;;;;5071555;28;20714;-77
2021/05/25 02:12:02;;;;;;;2.10;1.75;;;;;14.40;100651.00;;;;5072021;28;20191;-77
2021/05/25 02:14:31;;;;;;;3.47;2.30;;;;;14.40;100653.00;;;;5068123;28;20202;-77
2021/05/25 02:16:57;;;;;;;3.40;2.20;;;;;14.40;100658.00;;;;5067638;28;20226;-77
2021/05/25 02:19:24;;;;;;;5.53;2.08;;;;;14.40;100654.00;;;;5068760;28;20649;-77
2021/05/25 02:21:51;;;;;;;2.55;1.83;;;;;14.40;100654.00;;;;5071557;28;20199;-77
2021/05/25 02:24:17;;;;;;;2.47;2.05;;;;;14.40;100651.00;;;;5068498;28;20861;-77
2021/05/25 02:26:44;;;;;;;2.80;2.20;;;;;14.30;100661.00;;;;5068180;28;20190;-77
2021/05/25 02:29:11;;;;;;;1.92;1.73;;;;;14.30;100663.00;;;;5067892;28;20273;-77
2021/05/25 02:31:40;;;;;;;2.60;1.85;;;;;14.30;100658.00;;;;5077133;28;20210;-77
2021/05/25 02:34:06;;;;;;;2.45;1.80;;;;;14.30;100664.00;;;;5067529;28;20697;-77
2021/05/25 02:36:33;;;;;;;2.60;1.80;;;;;14.30;100660.00;;;;5070496;28;20234;-77
2021/05/25 02:39:00;;;;;;;3.35;1.58;;;;;14.30;100674.00;;;;5068539;28;20225;-77
2021/05/25 02:41:26;;;;;;;2.83;2.20;;;;;14.30;100671.00;;;;5068119;28;20191;-78
2021/05/25 02:43:54;;;;;;;2.83;1.90;;;;;14.20;100677.00;;;;5068761;28;20564;-78
2021/05/25 02:46:21;;;;;;;1.90;1.52;;;;;14.20;100679.00;;;;5067744;28;20194;-77
2021/05/25 02:48:49;;;;;;;1.85;1.52;;;;;14.20;100670.00;;;;5078582;28;20190;-77
2021/05/25 02:51:16;;;;;;;5.18;1.67;;;;;14.20;100669.00;;;;5085327;28;20218;-78
2021/05/25 02:53:43;;;;;;;1.77;1.27;;;;;14.20;100680.00;;;;5077464;28;20206;-78
2021/05/25 02:56:10;;;;;;;1.55;1.17;;;;;14.20;100677.00;;;;5086837;28;20225;-78
2021/05/25 02:58:37;;;;;;;2.63;1.33;;;;;14.20;100675.00;;;;5068793;28;20199;-77
2021/05/25 03:01:03;;;;;;;1.52;1.00;;;;;14.20;100685.00;;;;5067617;28;20195;-78
2021/05/25 03:03:30;;;;;;;3.38;1.00;;;;;14.20;100679.00;;;;5087994;28;20198;-78
2021/05/25 03:05:58;;;;;;;1.85;1.08;;;;;14.20;100684.00;;;;5070876;28;20703;-78
2021/05/25 03:08:26;;;;;;;1.17;0.93;;;;;14.20;100690.00;;;;5069678;28;20233;-77
2021/05/25 03:10:53;;;;;;;1.85;1.10;;;;;14.20;100687.00;;;;5084332;28;20198;-78
2021/05/25 03:13:20;;;;;;;3.38;1.05;;;;;14.20;100691.00;;;;5086241;28;20202;-78
2021/05/25 03:15:56;;;;;;;2.75;1.35;;;;;14.20;100688.00;;;;5086311;28;20226;-78
2021/05/25 03:18:47;;;;;;;1.67;1.05;;;;;14.10;100688.00;;;;5067874;28;20206;-78
2021/05/25 03:21:14;;;;;;;3.25;0.93;;;;;14.20;100686.00;;;;5040226;28;20624;-78
2021/05/25 03:23:47;;;;;;;1.58;1.02;;;;;14.20;100681.00;;;;5086819;28;20673;-78
2021/05/25 03:26:14;;;;;;;1.30;1.05;;;;;14.20;100685.00;;;;5085980;28;20263;-78
2021/05/25 03:28:40;;;;;;;2.08;1.15;;;;;14.10;100691.00;;;;5079092;28;20214;-78
2021/05/25 03:31:07;;;;;;;1.30;1.20;;;;;14.10;100696.00;;;;5067093;28;20245;-77
2021/05/25 03:33:35;;;;;;;3.13;1.10;;;;;14.10;100689.00;;;;5067410;28;20677;-78
2021/05/25 03:36:02;;;;;;;1.70;1.40;;;;;14.10;100694.00;;;;5067978;28;20225;-78
2021/05/25 03:38:29;;;;;;;2.00;1.15;;;;;14.10;100698.00;;;;5067162;28;20696;-77
2021/05/25 03:40:56;;;;;;;2.17;1.27;;;;;14.00;100694.00;;;;5068832;28;20202;-77
2021/05/25 03:43:23;;;;;;;1.05;0.93;;;;;14.00;100693.00;;;;5083867;28;20584;-77
2021/05/25 03:45:49;;;;;;;1.50;1.15;;;;;14.00;100691.00;;;;5070938;28;20214;-78
2021/05/25 03:50:58;;;;;;;1.00;0.90;;;;;14.00;100699.00;;;;5072206;28;20224;-77
2021/05/25 03:53:27;;;;;;;1.60;1.00;;;;;13.90;100705.00;;;;5076745;28;20207;-78
2021/05/25 03:56:05;;;;;;;1.45;1.00;;;;;13.90;100698.00;;;;5069532;28;20590;-78
2021/05/25 04:01:20;;;;;;;1.38;0.95;;;;;13.90;100702.00;;;;5074374;28;20276;-77
2021/05/25 04:03:48;;;;;;;1.45;1.35;;;;;13.90;100700.00;;;;5090712;28;20236;-77
2021/05/25 04:06:14;;;;;;;1.02;0.88;;;;;13.90;100698.00;;;;5091695;28;20190;-78
2021/05/25 04:08:41;;;;;;;1.42;0.82;;;;;13.90;100694.00;;;;5090247;28;20735;-78
2021/05/25 04:11:10;;;;;;;1.83;0.93;;;;;13.90;100703.00;;;;5089923;28;20335;-78
2021/05/25 04:13:37;;;;;;;1.88;1.27;;;;;13.90;100700.00;;;;5091800;28;20206;-77
2021/05/25 04:16:04;;;;;;;2.05;1.60;;;;;13.90;100700.00;;;;5085566;28;20994;-78
2021/05/25 04:18:31;;;;;;;2.22;1.50;;;;;14.00;100697.00;;;;5077427;28;20191;-78
2021/05/25 04:20:58;;;;;;;2.13;1.65;;;;;14.00;100708.00;;;;5082387;28;20194;-77
2021/05/25 04:23:24;;;;;;;2.15;1.52;;;;;14.00;100705.00;;;;5074562;28;20595;-77
2021/05/25 04:25:51;;;;;;;1.98;1.40;;;;;14.10;100716.00;;;;5089177;28;20224;-77
2021/05/25 04:28:19;;;;;;;3.22;1.63;;;;;14.10;100707.00;;;;5083949;28;20205;-78
2021/05/25 04:30:46;;;;;;;1.42;1.30;;;;;14.10;100716.00;;;;5090217;28;20251;-78
2021/05/25 04:33:13;;;;;;;3.30;1.45;;;;;14.10;100719.00;;;;5090919;28;20200;-78
2021/05/25 04:35:40;;;;;;;2.05;1.70;;;;;14.20;100730.00;;;;5084610;28;20226;-79
2021/05/25 04:38:07;;;;;;;1.95;1.45;;;;;14.20;100718.00;;;;5074897;28;20205;-78
2021/05/25 04:40:35;;;;;;;2.40;1.30;;;;;14.30;100724.00;;;;5097103;28;20214;-79
2021/05/25 04:43:02;;;;;;;2.42;2.00;;;;;14.30;100719.00;;;;5086155;28;20202;-79
2021/05/25 04:45:30;;;;;;;4.25;2.45;;;;;14.30;100718.00;;;;5079911;28;20254;-79
2021/05/25 04:47:57;;;;;;;2.00;1.67;;;;;14.40;100730.00;;;;5075345;28;20588;-78
2021/05/25 04:50:24;;;;;;;3.45;2.17;;;;;14.40;100732.00;;;;5082024;28;20195;-79
2021/05/25 04:52:51;;;;;;;3.42;2.17;;;;;14.40;100729.00;;;;5074050;28;20244;-79
2021/05/25 04:55:19;;;;;;;2.30;1.92;;;;;14.40;100731.00;;;;5080304;28;20247;-79
2021/05/25 04:57:46;;;;;;;2.30;1.88;;;;;14.50;100728.00;;;;5084070;28;20222;-76
2021/05/25 05:00:14;;;;;;;2.08;1.85;;;;;14.50;100735.00;;;;5081174;28;20202;-77
2021/05/25 05:02:42;;;;;;;2.45;2.08;;;;;14.60;100731.00;;;;5082698;28;20214;-77
2021/05/25 05:05:10;;;;;;;4.40;1.90;;;;;14.60;100731.00;;;;5086517;28;20564;-78
2021/05/25 05:07:37;;;;;;;2.22;1.88;;;;;14.60;100729.00;;;;5078844;28;20203;-77
2021/05/25 05:10:05;;;;;;;2.42;1.92;;;;;14.60;100735.00;;;;5076789;28;20234;-77
2021/05/25 05:12:32;;;;;;;3.35;2.20;;;;;14.70;100740.00;;;;5072025;28;20211;-76
2021/05/25 05:14:59;;;;;;;2.30;2.05;;;;;14.70;100741.00;;;;5069780;28;20198;-76
2021/05/25 05:17:27;;;;;;;3.00;2.13;;;;;14.80;100741.00;;;;5070023;28;20219;-78
2021/05/25 05:19:55;;;;;;;5.90;2.08;;;;;14.80;100749.00;;;;5079344;28;20199;-77
2021/05/25 05:22:22;;;;;;;2.80;1.95;;;;;14.90;100748.00;;;;5074024;28;20198;-77
2021/05/25 05:24:49;;;;;;;1.90;1.52;;;;;14.90;100744.00;;;;5077688;28;20198;-77
2021/05/25 05:27:16;;;;;;;2.05;1.85;;;;;15.00;100745.00;;;;5069171;28;20296;-77
2021/05/25 05:29:43;;;;;;;2.00;1.80;;;;;15.00;100739.00;;;;5076557;28;20222;-78
2021/05/25 05:32:10;;;;;;;2.53;2.10;;;;;15.10;100745.00;;;;5070107;28;20199;-77
2021/05/25 05:34:37;;;;;;;2.95;2.20;;;;;15.10;100747.00;;;;5069052;28;20203;-77
2021/05/25 05:37:05;;;;;;;3.20;2.33;;;;;15.20;100749.00;;;;5081477;28;20230;-77
2021/05/25 05:39:32;;;;;;;3.72;2.50;;;;;15.20;100756.00;;;;5069073;28;20681;-77
2021/05/25 05:41:59;;;;;;;4.25;2.30;;;;;15.30;100753.00;;;;5069479;28;20191;-77
2021/05/25 05:44:26;;;;;;;2.90;2.25;;;;;15.30;100759.00;;;;5083071;28;20650;-77
2021/05/25 05:46:52;;;;;;;2.70;2.33;;;;;15.40;100758.00;;;;5076461;28;20203;-76
2021/05/25 05:49:22;;;;;;;2.65;2.25;;;;;15.40;100761.00;;;;5078778;28;20206;-76
2021/05/25 05:51:48;;;;;;;2.35;2.05;;;;;15.40;100763.00;;;;5087758;28;20206;-77
2021/05/25 05:54:17;;;;;;;3.20;2.17;;;;;15.50;100763.00;;;;5069149;28;20195;-76
2021/05/25 05:56:43;;;;;;;2.35;2.03;;;;;15.50;100767.00;;;;5069088;28;20254;-76
2021/05/25 05:59:10;;;;;;;3.05;1.77;;;;;15.60;100770.00;;;;5068465;28;20234;-79
2021/05/25 06:01:37;;;;;;;3.33;2.35;;;;;15.60;100764.00;;;;5069625;28;20210;-80
2021/05/25 06:04:04;;;;;;;2.25;2.05;;;;;15.60;100771.00;;;;5068136;28;20202;-80
2021/05/25 06:06:31;;;;;;;2.20;2.00;;;;;15.70;100770.00;;;;5068505;28;20195;-81
2021/05/25 06:08:58;;;;;;;10.90;3.28;;;;;15.70;100768.00;;;;5067668;28;20599;-79
2021/05/25 06:11:25;;;;;;;3.88;2.30;;;;;15.70;100770.00;;;;5067435;28;20224;-80
2021/05/25 06:13:52;;;;;;;2.47;2.13;;;;;15.80;100776.00;;;;5068449;28;20673;-80
2021/05/25 06:16:19;;;;;;;2.53;2.22;;;;;15.90;100780.00;;;;5067625;28;20230;-80
2021/05/25 06:18:45;;;;;;;3.30;2.47;;;;;16.00;100776.00;;;;5069064;28;20207;-81
2021/05/25 06:21:12;;;;;;;3.20;2.65;;;;;16.00;100778.00;;;;5075308;28;20195;-80
2021/05/25 06:23:39;;;;;;;2.35;2.15;;;;;16.10;100773.00;;;;5088382;28;20208;-80
2021/05/25 06:26:05;;;;;;;3.35;2.42;;;;;16.20;100782.00;;;;5087819;28;20668;-79
2021/05/25 06:28:33;;;;;;;2.85;2.45;;;;;16.30;100789.00;;;;5088546;28;20207;-80
2021/05/25 06:31:00;;;;;;;2.40;2.20;;;;;16.30;100789.00;;;;5088460;28;20224;-80
2021/05/25 06:33:27;;;;;;;2.38;2.17;;;;;16.40;100791.00;;;;5087639;28;20206;-81
2021/05/25 06:35:54;;;;;;;3.05;2.33;;;;;16.50;100796.00;;;;5087094;28;20238;-81
2021/05/25 06:38:21;;;;;;;2.97;2.67;;;;;16.50;100786.00;;;;5087926;28;20267;-80
2021/05/25 06:40:48;;;;;;;4.28;3.00;;;;;16.60;100795.00;;;;5088846;28;20202;-79
2021/05/25 06:43:15;;;;;;;2.95;2.63;;;;;16.70;100807.00;;;;5087352;28;20259;-80
2021/05/25 06:45:43;;;;;;;3.58;3.25;;;;;16.70;100800.00;;;;5088026;28;20217;-81
2021/05/25 06:48:09;;;;;;;3.45;3.15;;;;;16.80;100802.00;;;;5087357;28;20217;-81
2021/05/25 06:50:37;;;;;;;4.13;3.47;;;;;16.80;100805.00;;;;5087222;28;20663;-80
2021/05/25 06:53:03;;;;;;;3.70;3.10;;;;;16.90;100803.00;;;;5075503;28;20199;-81
2021/05/25 06:55:31;;;;;;;3.53;3.15;;;;;16.90;100809.00;;;;5068212;28;20207;-81
2021/05/25 06:57:58;;;;;;;4.15;3.28;;;;;16.90;100818.00;;;;5067759;28;20202;-81
2021/05/25 07:00:25;;;;;;;3.90;3.05;;;;;16.90;100818.00;;;;5067214;28;20233;-81
2021/05/25 07:02:53;;;;;;;4.38;3.00;;;;;16.90;100818.00;;;;5069862;28;20202;-81
2021/05/25 07:05:20;;;;;;;2.97;2.50;;;;;16.90;100827.00;;;;5072288;28;20186;-82
2021/05/25 07:07:47;;;;;;;2.60;2.40;;;;;16.90;100828.00;;;;5075892;28;20195;-81
2021/05/25 07:10:14;;;;;;;3.28;2.70;;;;;16.90;100831.00;;;;5073630;28;20226;-82
2021/05/25 07:12:40;;;;;;;4.18;3.15;;;;;16.90;100830.00;;;;5088123;28;20587;-81
2021/05/25 07:15:08;;;;;;;4.13;2.78;;;;;17.00;100825.00;;;;5072335;28;20203;-83
2021/05/25 07:17:35;;;;;;;2.45;2.15;;;;;17.10;100825.00;;;;5081760;28;20226;-83
2021/05/25 07:20:03;;;;;;;2.20;2.00;;;;;17.10;100825.00;;;;5072577;28;20620;-81
2021/05/25 07:22:30;;;;;;;2.22;1.88;;;;;17.20;100818.00;;;;5069176;28;20191;-81
2021/05/25 07:24:57;;;;;;;5.85;2.60;;;;;17.30;100825.00;;;;5070599;28;20205;-81
2021/05/25 07:27:23;;;;;;;2.00;1.77;;;;;17.30;100829.00;;;;5074753;28;20199;-82
2021/05/25 07:29:50;;;;;;;1.40;1.17;;;;;17.40;100822.00;;;;5070056;28;20222;-81
2021/05/25 07:32:17;;;;;;;1.33;1.23;;;;;17.60;100828.00;;;;5079544;28;20684;-82
2021/05/25 07:34:44;;;;;;;1.20;0.93;;;;;17.70;100826.00;;;;5075127;28;20198;-82
2021/05/25 07:37:12;;;;;;;2.25;1.30;;;;;17.80;100830.00;;;;5074280;28;20699;-82
2021/05/25 07:39:39;;;;;;;1.83;1.20;;;;;17.90;100832.00;;;;5071466;28;20541;-82
2021/05/25 07:42:06;;;;;;;1.42;1.33;;;;;18.00;100828.00;;;;5078658;28;20202;-82
2021/05/25 07:44:33;;;;;;;1.80;1.10;;;;;18.00;100826.00;;;;5074502;28;20202;-83
2021/05/25 07:47:00;;;;;;;1.30;1.20;;;;;18.10;100831.00;;;;5080120;28;20634;-83
2021/05/25 07:49:27;;;;;;;1.52;1.10;;;;;18.20;100831.00;;;;5071583;28;20628;-82
2021/05/25 07:51:54;;;;;;;4.15;1.38;;;;;18.30;100839.00;;;;5078497;28;20230;-81
2021/05/25 07:54:21;;;;;;;1.45;1.23;;;;;18.40;100839.00;;;;5089888;28;20668;-81
2021/05/25 07:56:48;;;;;;;1.58;1.27;;;;;18.50;100845.00;;;;5084612;28;20533;-80
2021/05/25 07:59:15;;;;;;;3.95;1.25;;;;;18.50;100847.00;;;;5077496;28;20256;-82
2021/05/25 08:01:42;;;;;;;2.20;1.40;;;;;18.60;100866.00;;;;5069283;28;20206;-81
2021/05/25 08:04:09;;;;;;;2.72;1.33;;;;;18.60;100867.00;;;;5068599;28;20238;-82
2021/05/25 08:06:36;;;;;;;1.17;1.08;;;;;18.60;100861.00;;;;5080379;28;20206;-82
2021/05/25 08:09:04;;;;;;;1.67;1.00;;;;;18.70;100861.00;;;;5077826;28;20225;-83
2021/05/25 08:11:32;;;;;;;1.83;1.20;;;;;18.70;100860.00;;;;5087942;28;20625;-81
2021/05/25 08:13:58;;;;;;;1.30;1.10;;;;;18.80;100865.00;;;;5083884;28;20206;-81
2021/05/25 08:16:28;;;;;;;2.40;1.48;;;;;18.80;100864.00;;;;5071184;28;20219;-82
2021/05/25 08:19:07;;;;;;;1.60;0.95;;;;;18.90;100871.00;;;;5071026;28;20588;-82
2021/05/25 08:21:34;;;;;;;2.65;1.35;;;;;18.90;100872.00;;;;5070604;28;20202;-82
2021/05/25 08:24:01;;;;;;;2.30;1.45;;;;;18.90;100876.00;;;;5072015;28;20198;-81
2021/05/25 08:26:27;;;;;;;1.98;1.05;;;;;18.90;100891.00;;;;5077254;28;20202;-83
2021/05/25 08:28:55;;;;;;;1.48;1.10;;;;;18.70;100887.00;;;;5071490;28;20218;-83
2021/05/25 08:31:22;;;;;;;1.70;0.43;;;;;18.60;100894.00;;;;5072236;28;20264;-81
2021/05/25 08:33:50;;;;;;;0.80;0.40;;;;;18.50;100914.00;;;;5078356;28;20214;-82
2021/05/25 08:36:17;;;;;;;0.25;0.22;;;;;18.30;100917.00;;;;5069535;28;20223;-81
2021/05/25 08:38:44;;;;;;;2.70;0.43;;;;;18.20;100913.00;;;;5075252;28;20198;-82
2021/05/25 08:41:12;;;;;;;1.02;0.10;;;;;18.00;100920.00;;;;5070954;28;20205;-82
2021/05/25 08:43:39;;;;;;;2.38;0.20;;;;;17.90;100917.00;;;;5071072;28;20718;-82
2021/05/25 08:46:07;;;;;;;2.20;0.38;;;;;17.80;100917.00;;;;5070252;28;20215;-82
2021/05/25 08:48:37;;;;;;;0.55;0.30;;;;;17.70;100927.00;;;;5069740;28;20290;-82
2021/05/25 08:51:04;;;;;;;3.03;0.30;;;;;17.70;100926.00;;;;5078342;28;20358;-81
2021/05/25 08:53:31;;;;;;;0.85;0.30;;;;;17.70;100929.00;;;;5087311;28;20205;-81
2021/05/25 08:55:58;;;;;;;1.02;0.30;;;;;17.60;100940.00;;;;5076506;28;20199;-82
2021/05/25 08:58:26;;;;;;;1.58;0.65;;;;;17.60;100934.00;;;;5071670;28;20237;-82
2021/05/25 09:00:55;;;;;;;1.88;0.70;;;;;17.60;100939.00;;;;5069799;28;20203;-83
2021/05/25 09:03:23;;;;;;;3.22;0.60;;;;;17.70;100938.00;;;;5068697;28;20210;-83
2021/05/25 09:05:52;;;;;;;1.98;0.77;;;;;17.70;100936.00;;;;5083604;28;20195;-83
2021/05/25 09:08:18;;;;;;;1.48;0.90;;;;;17.90;100939.00;;;;5075532;28;20222;-83
2021/05/25 09:10:47;;;;;;;1.85;0.93;;;;;18.00;100931.00;;;;5081104;28;20677;-84
2021/05/25 09:13:16;;;;;;;3.90;1.00;;;;;18.20;100935.00;;;;5078529;28;20278;-82
2021/05/25 09:15:45;;;;;;;1.65;1.00;;;;;18.30;100937.00;;;;5082168;28;20199;-81
2021/05/25 09:18:14;;;;;;;2.85;1.15;;;;;18.50;100929.00;;;;5080185;28;20206;-81
2021/05/25 09:20:44;;;;;;;1.75;1.10;;;;;18.70;100935.00;;;;5069998;28;20202;-82
2021/05/25 09:23:12;;;;;;;3.42;1.48;;;;;18.90;100931.00;;;;5083955;28;20285;-82
2021/05/25 09:25:51;;;;;;;2.22;1.60;;;;;18.90;100924.00;;;;5081607;28;20199;-79
2021/05/25 09:28:19;;;;;;;1.48;0.93;;;;;19.10;100931.00;;;;5067670;28;20194;-81
2021/05/25 09:30:47;;;;;;;4.43;1.60;;;;;19.10;100933.00;;;;5068632;28;20802;-81
2021/05/25 09:33:14;;;;;;;1.75;1.13;;;;;19.10;100946.00;;;;5082240;28;20210;-81
2021/05/25 09:35:46;;;;;;;1.63;1.23;;;;;19.20;100950.00;;;;5076579;28;20198;-80
2021/05/25 09:38:14;;;;;;;2.42;1.40;;;;;19.30;100947.00;;;;5072143;28;20634;-81
2021/05/25 09:40:44;;;;;;;2.00;1.35;;;;;19.30;100949.00;;;;5077205;28;20260;-82
2021/05/25 09:43:13;;;;;;;5.28;1.30;;;;;19.40;100943.00;;;;5073923;28;20198;-82
2021/05/25 09:45:58;;;;;;;1.20;0.95;;;;;19.40;100948.00;;;;5068492;28;20198;-81
2021/05/25 09:48:26;;;;;;;3.47;1.60;;;;;19.50;100946.00;;;;5077654;28;20199;-82
2021/05/25 09:50:55;;;;;;;1.27;1.10;;;;;19.50;100953.00;;;;5077869;28;20210;-82
2021/05/25 09:53:23;;;;;;;4.15;1.35;;;;;19.50;100956.00;;;;5071717;28;20217;-82
2021/05/25 09:55:53;;;;;;;2.53;1.10;;;;;19.40;100956.00;;;;5086607;28;20332;-81
2021/05/25 09:58:22;;;;;;;2.17;1.08;;;;;19.40;100958.00;;;;5087052;28;20241;-81
2021/05/25 10:00:49;;;;;;;2.33;1.02;;;;;19.40;100965.00;;;;5073391;28;20229;-81
2021/05/25 10:03:19;;;;;;;1.83;0.93;;;;;19.40;100970.00;;;;5070695;28;20280;-81
2021/05/25 10:05:48;;;;;;;5.20;1.55;;;;;19.50;100966.00;;;;5068348;28;20226;-81
2021/05/25 10:08:17;;;;;;;2.22;1.00;;;;;19.60;100969.00;;;;5068065;28;20231;-82
2021/05/25 10:10:44;;;;;;;3.88;0.90;;;;;19.70;100980.00;;;;5068774;28;20199;-83
2021/05/25 10:13:12;;;;;;;4.47;0.88;;;;;19.80;100985.00;;;;5068687;28;20695;-83
2021/05/25 10:15:39;;;;;;;2.55;1.23;;;;;19.90;100983.00;;;;5074831;28;20777;-81
2021/05/25 10:21:05;;;;;;;2.05;0.88;;;;;20.10;100986.00;;;;5070251;28;20667;-82
2021/05/25 10:23:34;;;;;;;1.88;0.90;;;;;20.20;100984.00;;;;5071106;28;20217;-82
2021/05/25 10:26:04;;;;;;;2.45;0.60;;;;;20.40;100984.00;;;;5070728;28;20476;-81
2021/05/25 10:28:31;;;;;;;7.13;0.90;;;;;20.50;100989.00;;;;5071659;28;20202;-80
2021/05/25 10:30:58;;;;;;;2.03;1.10;;;;;20.60;101002.00;;;;5084311;28;20194;-80
2021/05/25 10:33:32;;;;;;;2.50;0.98;;;;;20.60;101005.00;;;;5072666;28;20201;-80
2021/05/25 10:36:05;;;;;;;3.28;0.65;;;;;20.60;101002.00;;;;5068052;28;20207;-80
2021/05/25 10:38:34;;;;;;;1.77;0.50;;;;;20.60;101001.00;;;;5068482;28;20210;-79
2021/05/25 10:41:04;;;;;;;2.38;0.70;;;;;20.50;101000.00;;;;5073279;28;20205;-81
2021/05/25 10:43:47;;;;;;;5.95;1.50;;;;;20.50;100995.00;;;;5068890;28;20199;-81
2021/05/25 10:46:22;;;;;;;1.65;0.50;;;;;20.60;100991.00;;;;5071206;28;20194;-80
2021/05/25 10:49:06;;;;;;;3.17;0.70;;;;;20.70;101005.00;;;;5069184;28;20201;-81
2021/05/25 10:52:16;;;;;;;4.00;0.60;;;;;20.80;101006.00;;;;5069737;28;20241;-81
2021/05/25 10:54:56;;;;;;;1.60;0.82;;;;;21.00;101005.00;;;;5071848;28;20203;-81
2021/05/25 10:57:50;;;;;;;2.53;1.10;;;;;21.10;101001.00;;;;5080747;28;20222;-81
2021/05/25 11:00:38;;;;;;;1.70;0.50;;;;;21.10;101027.00;;;;5071527;28;20199;-81
2021/05/25 11:03:18;;;;;;;5.05;1.23;;;;;21.20;101022.00;;;;5080116;28;20194;-82
2021/05/25 11:05:50;;;;;;;2.70;0.90;;;;;21.10;101017.00;;;;5072673;28;20186;-80
2021/05/25 11:08:40;;;;;;;2.28;0.80;;;;;21.00;101026.00;;;;5073866;28;20282;-80
2021/05/25 11:11:14;;;;;;;1.60;0.90;;;;;20.90;101025.00;;;;5076725;28;20720;-80
2021/05/25 11:13:47;;;;;;;2.28;0.60;;;;;21.00;101018.00;;;;5073408;28;20669;-81
2021/05/25 11:16:17;;;;;;;3.53;0.93;;;;;21.10;101025.00;;;;5083007;28;20696;-81
2021/05/25 11:18:47;;;;;;;1.92;0.70;;;;;21.10;101031.00;;;;5071680;28;20210;-80
2021/05/25 11:21:44;;;;;;;1.75;0.88;;;;;21.10;101018.00;;;;5082282;28;20545;-80
2021/05/25 11:24:28;;;;;;;4.35;0.50;;;;;21.20;101043.00;;;;5063276;28;20260;-80
2021/05/25 11:26:58;;;;;;;3.53;1.25;;;;;21.30;101043.00;;;;5078452;28;20595;-80
2021/05/25 11:29:26;;;;;;;3.15;0.70;;;;;21.40;101040.00;;;;5071959;28;20293;-82
2021/05/25 11:31:53;;;;;;;1.45;0.55;;;;;21.40;101027.00;;;;5069734;28;20227;-82
2021/05/25 11:34:24;;;;;;;1.10;0.50;;;;;21.40;101038.00;;;;5069666;28;20213;-81
2021/05/25 11:36:55;;;;;;;1.30;0.57;;;;;21.40;101040.00;;;;5069216;28;20222;-82
2021/05/25 11:39:22;;;;;;;2.15;0.43;;;;;21.40;101028.00;;;;5072231;28;20195;-81
2021/05/25 11:41:49;;;;;;;2.35;0.60;;;;;21.50;101046.00;;;;5073218;28;20191;-82
2021/05/25 11:44:19;;;;;;;3.47;0.60;;;;;21.50;101055.00;;;;5071299;28;20583;-82
2021/05/25 11:46:47;;;;;;;1.42;0.52;;;;;21.40;101071.00;;;;5070592;28;20613;-82
2021/05/25 11:49:15;;;;;;;3.58;0.47;;;;;21.40;101056.00;;;;5070621;28;20199;-77
2021/05/25 11:51:42;;;;;;;0.88;0.40;;;;;21.40;101054.00;;;;5071906;28;20191;-78
2021/05/25 11:54:11;;;;;;;0.60;0.30;;;;;21.40;101046.00;;;;5077283;28;20235;-78
2021/05/25 11:56:38;;;;;;;1.13;0.25;;;;;21.40;101072.00;;;;5078402;28;20215;-78
2021/05/25 11:59:10;;;;;;;1.40;0.75;;;;;21.40;101059.00;;;;5073651;28;20206;-78
2021/05/25 12:01:46;;;;;;;3.72;0.30;;;;;21.30;101073.00;;;;5068825;28;20210;-78
2021/05/25 12:04:14;;;;;;;0.82;0.40;;;;;21.20;101070.00;;;;5080745;28;20194;-78
2021/05/25 12:06:48;;;;;;;2.80;0.40;;;;;21.10;101080.00;;;;5077253;28;20584;-79
2021/05/25 12:09:16;;;;;;;0.52;0.30;;;;;21.20;101081.00;;;;5081643;28;20725;-77
2021/05/25 12:11:44;;;;;;;0.52;0.20;;;;;21.10;101073.00;;;;5073904;28;20607;-76
2021/05/25 12:14:12;;;;;;;0.60;0.40;;;;;21.10;101073.00;;;;5078921;28;20210;-77
2021/05/25 12:16:41;;;;;;;3.33;0.40;;;;;21.10;101089.00;;;;5080040;28;20231;-77
2021/05/25 12:19:09;;;;;;;1.10;0.40;;;;;21.10;101079.00;;;;5079337;28;20198;-76
2021/05/25 12:21:36;;;;;;;2.35;0.43;;;;;21.10;101083.00;;;;5071170;28;20649;-76
2021/05/25 12:24:03;;;;;;;2.47;0.40;;;;;21.10;101077.00;;;;5083642;28;20587;-76